KOZW

Livingston County Spencer J Hardy Airport

Howell, Michigan, USA
METAR KOZW 160135Z AUTO 05005KT 5SM BR CLR 01/00 A3015 RMK AO2 T00081002
Observed Flight Rules
Dec-16 @ 01:35 UTC (18 minutes ago) Marginal Visual Flight Rules
Wind Visibility Clouds Conditions
50° at 5 knots 5 miles
  • Clear skies
  • Mist
Temperatures Readings
Current 1°C / 34°F
Dewpoint -0°C / 32°F
Humidity 93%
Altimeter 30.15" Hg
Pressure 1021 hPa
Elevation 293
METAR KOZW 160135Z AUTO 05005KT 5SM BR CLR 01/00 A3015 RMK AO2 T00081002
Observed Flight Rules
Dec-16 @ 01:35 UTC
(18 minutes ago)
MVFR
Wind Visibility
50° at 5 knots 5 miles
Clouds
  • Clear skies
Conditions
  • Mist
Temperature Dewpoint
1°C / 34°F -0°C / 32°F
Humidity Altimeter Pressure
93% 30.15" Hg 1021 hPa